Flight Track Log - Related Links

Times and Time Zones

All times are in EDT time to prevent confusion due to time zone crossing. See the DLH1365 flight status page for this flight to view local times or setup timezone preferences in your user account.

Time Position Orientation Groundspeed Altitude Reporting Facility
EDT Latitude Longitude Course Direction KTS MPH feet Rate Location/Type
Mon 05:07:15 AM 50.0794 19.7464 274° West  Level Estimated
Mon 05:08:15 AM 50.0860 19.5928 274° West  Level Estimated
Mon 05:09:15 AM 50.0924 19.4390 274° West  Level Estimated
Mon 05:10:15 AM 50.0986 19.2853 274° West  Level Estimated
Mon 05:11:15 AM 50.1045 19.1315 273° West  Level Estimated
Mon 05:12:15 AM 50.1103 18.9777 273° West  Level Estimated
Mon 05:13:15 AM 50.1159 18.8238 273° West  Level Estimated
Mon 05:14:15 AM 50.1213 18.6699 273° West  Level Estimated
Mon 05:15:15 AM 50.1264 18.5160 273° West  Level Estimated
Mon 05:16:15 AM 50.1314 18.3620 273° West  Level Estimated
Mon 05:17:15 AM 50.1361 18.2080 273° West  Level Estimated
Mon 05:18:15 AM 50.1407 18.0540 273° West  Level Estimated
Mon 05:19:15 AM 50.1450 17.8999 272° West  Level Estimated
Mon 05:20:15 AM 50.1492 17.7458 272° West  Level Estimated
Mon 05:21:15 AM 50.1531 17.5917 272° West  Level Estimated
Mon 05:22:15 AM 50.1568 17.4376 272° West  Level Estimated
Mon 05:23:15 AM 50.1604 17.2834 272° West  Level Estimated
Mon 05:24:15 AM 50.1637 17.1292 272° West  Level Estimated
Mon 05:25:15 AM 50.1668 16.9750 272° West  Level Estimated
Mon 05:26:15 AM 50.1698 16.8208 272° West  Level Estimated
Mon 05:27:15 AM 50.1725 16.6666 272° West  Level Estimated
Mon 05:28:15 AM 50.1750 16.5123 271° West  Level Estimated
Mon 05:29:15 AM 50.1773 16.3581 271° West  Level Estimated
Mon 05:30:15 AM 50.1794 16.2038 271° West  Level Estimated
Mon 05:31:15 AM 50.1813 16.0495 271° West  Level Estimated
Mon 05:32:15 AM 50.1830 15.8952 271° West  Level Estimated
Mon 05:33:15 AM 50.1845 15.7408 271° West  Level Estimated
Mon 05:34:15 AM 50.1858 15.5865 271° West  Level Estimated
Mon 05:35:15 AM 50.1868 15.4322 271° West  Level Estimated
Mon 05:36:15 AM 50.1877 15.2778 270° West  Level Estimated
Mon 05:37:15 AM 50.1884 15.1235 270° West  Level Estimated
Mon 05:38:15 AM 50.1889 14.9691 270° West  Level Estimated
Mon 05:39:15 AM 50.1891 14.8148 270° West  Level Estimated
Mon 05:40:15 AM 50.1892 14.6604 270° West  Level Estimated
Mon 05:41:15 AM 50.1890 14.5061 270° West  Level Estimated
Mon 05:42:15 AM 50.1887 14.3517 270° West  Level Estimated
Mon 05:43:15 AM 50.1881 14.1973 270° West  Level Estimated
Mon 05:44:15 AM 50.1874 14.0430 269° West  Level Estimated
Mon 05:45:15 AM 50.1864 13.8887 269° West  Level Estimated
Mon 05:46:15 AM 50.1852 13.7343 269° West  Level Estimated
Mon 05:47:15 AM 50.1838 13.5800 269° West  Level Estimated
Mon 05:48:15 AM 50.1823 13.4257 269° West  Level Estimated
Mon 05:49:15 AM 50.1805 13.2714 269° West  Level Estimated
Mon 05:50:15 AM 50.1785 13.1171 269° West  Level Estimated
Mon 05:51:15 AM 50.1763 12.9628 269° West  Level Estimated
Mon 05:52:15 AM 50.1739 12.8085 269° West  Level Estimated
Mon 05:53:15 AM 50.1713 12.6543 268° West  Level Estimated
Mon 05:54:15 AM 50.1685 12.5000 268° West  Level Estimated
Mon 05:55:15 AM 50.1655 12.3458 268° West  Level Estimated
Mon 05:56:15 AM 50.1623 12.1917 268° West  Level Estimated
Mon 05:57:15 AM 50.1589 12.0375 268° West  Level Estimated
Mon 05:58:15 AM 50.1553 11.8833 268° West  Level Estimated
Mon 05:59:15 AM 50.1518 11.7427 268° West  Level Estimated
Mon 06:00:15 AM 50.1481 11.6021 268° West  Level Estimated
Mon 06:01:15 AM 50.1443 11.4615 268° West  Level Estimated
Mon 06:02:15 AM 50.1403 11.3209 267° West  Level Estimated
Mon 06:03:15 AM 50.1362 11.1804 267° West  Level Estimated
Mon 06:04:15 AM 50.1318 11.0398 267° West  Level Estimated
Mon 06:05:15 AM 50.1273 10.8993 267° West  Level Estimated
Mon 06:06:15 AM 50.1227 10.7589 267° West  Level Estimated
Mon 06:07:15 AM 50.1178 10.6184 267° West  Level Estimated
Mon 06:08:15 AM 50.1128 10.4780 267° West  Level Estimated
Mon 06:09:15 AM 50.1076 10.3376 267° West  Level Estimated
Mon 06:10:15 AM 50.1023 10.1973 267° West  Level Estimated
Mon 06:11:15 AM 50.0968 10.0569 266° West  Level Estimated
Mon 06:12:15 AM 50.0911 9.9166 266° West  Level Estimated
Mon 06:13:15 AM 50.0852 9.7764 266° West  Level Estimated
Mon 06:14:15 AM 50.0792 9.6362 266° West  Level Estimated
Mon 06:15:15 AM 50.0730 9.4960 266° West  Level Estimated
Mon 06:16:15 AM 50.0667 9.3558 266° West  Level Estimated
Mon 06:17:15 AM 50.0601 9.2157 266° West  Level Estimated
Mon 06:18:15 AM 50.0534 9.0757 266° West  Level Estimated
Mon 06:19:15 AM 50.0466 8.9356 266° West  Level Estimated
Mon 06:20:15 AM 50.0395 8.7956 265° West  Level Estimated
Mon 06:21:15 AM 50.0323 8.6557 265° West  Level Estimated
Mon 06:22:15 AM 50.0250 8.5158 85° East  Level Estimated
Mon 06:23:15 AM 50.0323 8.6557 265° West  Level Estimated
Mon 06:24:15 AM 50.0250 8.5158 85° East  Level Estimated
Mon 06:25:15 AM 50.0323 8.6557 265° West  Level Estimated
Mon 06:26:15 AM 50.0250 8.5158 85° East  Level Estimated
Mon 06:27:15 AM 50.0323 8.6557 265° West  Level Estimated
Mon 06:28:15 AM 50.0250 8.5158 85° East  Level Estimated
Mon 06:29:15 AM 50.0323 8.6557 265° West  Level Estimated
Mon 06:30:15 AM 50.0250 8.5158 85° East  Level Estimated
Mon 06:31:15 AM 50.0323 8.6557 265° West  Level Estimated
Mon 06:32:15 AM 50.0250 8.5158 85° East  Level Estimated
Mon 06:33:15 AM 50.0323 8.6557 265° West  Level Estimated
Mon 06:34:15 AM 50.0250 8.5158 85° East  Level Estimated
Mon 06:35:15 AM 50.0323 8.6557 265° West  Level Estimated
Mon 06:36:15 AM 50.0250 8.5158 85° East  Level Estimated
Mon 06:37:15 AM 50.0323 8.6557 265° West  Level Estimated
Mon 06:38:15 AM 50.0250 8.5158 85° East  Level Estimated
Mon 06:39:15 AM 50.0323 8.6557 265° West  Level Estimated
Mon 06:40:15 AM 50.0250 8.5158 265° West  Level Estimated

Login

Don't have an account? Register now (free) for customized features, flight alerts, and more!